createdAt,value
2022-11-26T00:01:23.085Z,4.40
2022-11-26T00:03:52.224Z,4.40
2022-11-26T00:06:44.788Z,4.40
2022-11-26T00:09:22.599Z,4.40
2022-11-26T00:11:49.492Z,4.40
2022-11-26T00:14:17.148Z,4.30
2022-11-26T00:16:44.759Z,4.30
2022-11-26T00:19:11.838Z,4.30
2022-11-26T00:21:41.178Z,4.30
2022-11-26T00:24:27.945Z,4.30
2022-11-26T00:26:57.735Z,4.30
2022-11-26T00:29:24.674Z,4.30
2022-11-26T00:31:51.713Z,4.30
2022-11-26T00:34:18.703Z,4.30
2022-11-26T00:36:45.847Z,4.30
2022-11-26T00:39:22.720Z,4.30
2022-11-26T00:41:52.345Z,4.30
2022-11-26T00:44:24.682Z,4.20
2022-11-26T00:46:52.342Z,4.20
2022-11-26T00:49:19.463Z,4.20
2022-11-26T00:51:46.953Z,4.20
2022-11-26T00:54:17.427Z,4.20
2022-11-26T00:56:45.703Z,4.20
2022-11-26T00:59:14.769Z,4.10
2022-11-26T01:01:41.811Z,4.10
2022-11-26T01:04:08.903Z,4.10
2022-11-26T01:06:46.514Z,4.10
2022-11-26T01:09:19.255Z,4.00
2022-11-26T01:11:50.879Z,4.00
2022-11-26T01:14:21.636Z,4.10
2022-11-26T01:16:56.409Z,4.10
2022-11-26T01:19:23.439Z,4.10
2022-11-26T01:21:50.383Z,4.00
2022-11-26T01:24:17.374Z,4.10
2022-11-26T01:26:45.034Z,4.00
2022-11-26T01:29:19.932Z,4.00
2022-11-26T01:31:47.181Z,4.00
2022-11-26T01:34:14.386Z,4.00
2022-11-26T01:36:42.111Z,4.00
2022-11-26T01:39:20.772Z,4.00
2022-11-26T01:42:21.740Z,4.00
2022-11-26T01:44:48.624Z,4.00
2022-11-26T01:47:24.648Z,3.90
2022-11-26T01:50:31.699Z,3.90
2022-11-26T01:53:00.227Z,3.90
2022-11-26T01:55:38.588Z,3.90
2022-11-26T01:58:09.357Z,3.90
2022-11-26T02:00:36.407Z,3.90
2022-11-26T02:03:05.029Z,3.90
2022-11-26T02:05:39.423Z,3.80
2022-11-26T02:08:06.743Z,3.90
2022-11-26T02:10:34.734Z,3.90
2022-11-26T02:13:01.826Z,3.80
2022-11-26T02:15:38.436Z,3.80
2022-11-26T02:18:08.024Z,3.80
2022-11-26T02:21:28.514Z,3.80
2022-11-26T02:24:19.709Z,3.70
2022-11-26T02:26:49.912Z,3.80
2022-11-26T02:29:30.818Z,3.80
2022-11-26T02:32:17.457Z,3.80
2022-11-26T02:34:51.553Z,3.70
2022-11-26T02:37:44.613Z,3.80
2022-11-26T02:40:11.693Z,3.80
2022-11-26T02:42:38.922Z,3.80
2022-11-26T02:45:10.355Z,3.80
2022-11-26T02:47:41.088Z,3.80
2022-11-26T02:50:12.241Z,3.80
2022-11-26T02:52:41.774Z,3.80
2022-11-26T02:55:11.842Z,3.80
2022-11-26T02:57:45.738Z,3.80
2022-11-26T03:00:13.925Z,3.80
2022-11-26T03:02:52.745Z,3.90
2022-11-26T03:05:19.936Z,3.90
2022-11-26T03:07:52.890Z,3.90
2022-11-26T03:10:25.560Z,3.90
2022-11-26T03:12:52.509Z,3.90
2022-11-26T03:15:19.578Z,3.90
2022-11-26T03:17:46.587Z,3.90
2022-11-26T03:20:13.856Z,3.90
2022-11-26T03:22:40.828Z,4.00
2022-11-26T03:25:08.814Z,3.90
2022-11-26T03:27:35.949Z,3.90
2022-11-26T03:30:03.434Z,3.90
2022-11-26T03:32:30.416Z,3.90
2022-11-26T03:34:57.399Z,3.90
2022-11-26T03:37:24.356Z,3.90
2022-11-26T03:39:51.371Z,3.90
2022-11-26T03:42:18.422Z,3.90
2022-11-26T03:44:45.391Z,3.90
2022-11-26T03:47:12.452Z,3.90
2022-11-26T03:49:39.406Z,3.90
2022-11-26T03:52:06.424Z,3.90
2022-11-26T03:54:33.386Z,3.90
2022-11-26T03:57:00.317Z,3.90
2022-11-26T03:59:27.248Z,3.90
2022-11-26T04:01:54.208Z,3.90
2022-11-26T04:04:21.202Z,3.90
2022-11-26T04:06:48.129Z,3.90
2022-11-26T04:09:15.013Z,3.90
2022-11-26T04:11:42.032Z,3.80
2022-11-26T04:14:08.997Z,3.80
2022-11-26T04:16:36.072Z,3.80
2022-11-26T04:19:03.020Z,3.70
2022-11-26T04:21:29.927Z,3.70
2022-11-26T04:23:56.986Z,3.80
2022-11-26T04:26:24.147Z,3.80
2022-11-26T04:28:51.195Z,3.80
2022-11-26T04:31:18.291Z,3.80
2022-11-26T04:33:45.338Z,3.80
2022-11-26T04:36:12.425Z,3.70
2022-11-26T04:38:39.373Z,3.70
2022-11-26T04:41:06.471Z,3.70
2022-11-26T04:43:34.069Z,3.70
2022-11-26T04:46:01.033Z,3.70
2022-11-26T04:48:28.076Z,3.60
2022-11-26T04:50:54.972Z,3.60
2022-11-26T04:53:22.298Z,3.60
2022-11-26T04:55:51.405Z,3.60
2022-11-26T04:58:19.809Z,3.50
2022-11-26T05:00:51.096Z,3.50
2022-11-26T05:03:19.002Z,3.40
2022-11-26T05:05:46.862Z,3.40
2022-11-26T05:08:14.095Z,3.40
2022-11-26T05:10:41.279Z,3.30
2022-11-26T05:13:08.606Z,3.30
2022-11-26T05:15:35.609Z,3.20
2022-11-26T05:18:02.608Z,3.20
2022-11-26T05:20:29.552Z,3.20
2022-11-26T05:22:56.498Z,3.20
2022-11-26T05:25:23.463Z,3.20
2022-11-26T05:27:50.404Z,3.20
2022-11-26T05:30:17.475Z,3.20
2022-11-26T05:32:44.726Z,3.20
2022-11-26T05:35:11.954Z,3.20
2022-11-26T05:37:39.128Z,3.20
2022-11-26T05:40:07.364Z,3.20
2022-11-26T05:42:35.880Z,3.20
2022-11-26T05:45:03.099Z,3.20
2022-11-26T05:47:30.174Z,3.30
2022-11-26T05:49:57.196Z,3.30
2022-11-26T05:52:24.652Z,3.40
2022-11-26T05:54:51.588Z,3.30
2022-11-26T05:57:20.185Z,3.30
2022-11-26T05:59:49.193Z,3.40
2022-11-26T06:02:16.305Z,3.40
2022-11-26T06:04:43.420Z,3.40
2022-11-26T06:07:10.724Z,3.50
2022-11-26T06:09:37.974Z,3.40
2022-11-26T06:12:05.429Z,3.50
2022-11-26T06:14:32.408Z,3.50
2022-11-26T06:16:59.397Z,3.50
2022-11-26T06:19:26.402Z,3.60
2022-11-26T06:21:53.340Z,3.60
2022-11-26T06:24:20.252Z,3.60
2022-11-26T06:26:47.232Z,3.60
2022-11-26T06:29:14.206Z,3.70
2022-11-26T06:31:41.186Z,3.70
2022-11-26T06:34:08.113Z,3.80
2022-11-26T06:36:35.056Z,3.80
2022-11-26T06:39:02.022Z,3.90
2022-11-26T06:41:28.920Z,3.90
2022-11-26T06:43:55.918Z,3.90
2022-11-26T06:46:24.624Z,4.00
2022-11-26T06:48:51.565Z,4.00
2022-11-26T06:51:22.140Z,4.00
2022-11-26T06:53:49.411Z,4.10
2022-11-26T06:56:19.223Z,4.10
2022-11-26T06:58:47.918Z,4.10
2022-11-26T07:01:17.751Z,4.20
2022-11-26T07:03:44.947Z,4.30
2022-11-26T07:06:24.013Z,4.40
2022-11-26T07:08:52.133Z,4.40
2022-11-26T07:11:19.611Z,4.40
2022-11-26T07:13:46.669Z,4.50
2022-11-26T07:16:13.940Z,4.60
2022-11-26T07:18:41.310Z,4.70
2022-11-26T07:21:11.356Z,4.80
2022-11-26T07:23:39.136Z,4.90
2022-11-26T07:26:07.400Z,4.90
2022-11-26T07:28:35.207Z,5.10
2022-11-26T07:31:10.399Z,5.20
2022-11-26T07:33:40.074Z,5.30
2022-11-26T07:36:11.661Z,5.30
2022-11-26T07:38:38.565Z,5.30
2022-11-26T07:41:07.636Z,5.20
2022-11-26T07:43:36.054Z,5.20
2022-11-26T07:46:04.368Z,5.20
2022-11-26T07:48:32.435Z,5.20
2022-11-26T07:51:00.719Z,5.00
2022-11-26T07:53:32.204Z,5.10
2022-11-26T07:55:59.151Z,5.10
2022-11-26T07:58:27.076Z,5.20
2022-11-26T08:00:54.959Z,5.10
2022-11-26T08:03:22.301Z,5.20
2022-11-26T08:05:49.222Z,5.40
2022-11-26T08:08:16.222Z,5.40
2022-11-26T08:10:43.364Z,5.40
2022-11-26T08:13:10.266Z,5.50
2022-11-26T08:15:37.811Z,5.50
2022-11-26T08:18:04.997Z,5.40
2022-11-26T08:20:31.915Z,5.50
2022-11-26T08:22:58.944Z,5.60
2022-11-26T08:25:26.004Z,5.70
2022-11-26T08:27:52.913Z,5.80
2022-11-26T08:30:19.937Z,5.80
2022-11-26T08:32:46.861Z,5.90
2022-11-26T08:35:13.805Z,5.90
2022-11-26T08:37:42.503Z,5.90
2022-11-26T08:40:11.952Z,6.00
2022-11-26T08:42:40.806Z,6.00
2022-11-26T08:45:08.183Z,6.10
2022-11-26T08:47:35.171Z,6.10
2022-11-26T08:50:02.133Z,6.20
2022-11-26T08:52:29.095Z,6.30
2022-11-26T08:54:56.085Z,6.30
2022-11-26T08:57:23.001Z,6.40
2022-11-26T08:59:52.103Z,6.50
2022-11-26T09:02:19.233Z,6.50
2022-11-26T09:04:46.268Z,6.60
2022-11-26T09:07:13.412Z,6.60
2022-11-26T09:09:40.453Z,6.60
2022-11-26T09:12:08.226Z,6.60
2022-11-26T09:14:38.668Z,6.50
2022-11-26T09:17:06.841Z,6.50
2022-11-26T09:19:34.135Z,6.40
2022-11-26T09:22:01.304Z,6.60
2022-11-26T09:24:28.330Z,6.60
2022-11-26T09:26:55.208Z,6.60
2022-11-26T09:29:23.815Z,6.60
2022-11-26T09:34:39.116Z,6.80
2022-11-26T09:37:06.602Z,6.90
2022-11-26T09:39:33.749Z,6.90
2022-11-26T09:42:07.796Z,7.00
2022-11-26T09:44:40.924Z,7.10
2022-11-26T09:47:24.124Z,7.20
2022-11-26T09:49:53.810Z,7.20
2022-11-26T09:52:24.214Z,7.20
2022-11-26T09:54:57.561Z,7.20
2022-11-26T09:57:40.127Z,7.30
2022-11-26T10:00:31.760Z,7.40
2022-11-26T10:02:59.290Z,7.30
2022-11-26T10:05:55.171Z,7.40
2022-11-26T10:08:53.226Z,7.40
2022-11-26T10:11:22.948Z,7.50
2022-11-26T10:14:21.944Z,7.50
2022-11-26T10:17:16.539Z,7.20
2022-11-26T10:19:58.099Z,7.20
2022-11-26T10:22:56.917Z,7.20
2022-11-26T10:25:29.545Z,7.30
2022-11-26T10:27:58.328Z,7.30
2022-11-26T10:30:28.410Z,7.40
2022-11-26T10:33:00.120Z,7.50
2022-11-26T10:35:29.469Z,7.50
2022-11-26T10:37:57.732Z,7.60
2022-11-26T10:40:27.627Z,7.50
2022-11-26T10:43:03.302Z,7.80
2022-11-26T10:45:50.206Z,8.10
2022-11-26T10:48:31.994Z,8.20
2022-11-26T10:51:25.125Z,8.50
2022-11-26T10:54:04.901Z,8.80
2022-11-26T10:56:53.269Z,9.00
2022-11-26T10:59:20.223Z,9.20
2022-11-26T11:01:52.888Z,9.30
2022-11-26T11:04:39.553Z,9.30
2022-11-26T11:07:11.772Z,9.20
2022-11-26T11:09:39.002Z,9.30
2022-11-26T11:12:11.825Z,9.30
2022-11-26T11:14:46.669Z,9.30
2022-11-26T11:17:37.031Z,9.30
2022-11-26T11:20:40.507Z,9.40
2022-11-26T11:23:52.385Z,9.50
2022-11-26T11:26:25.568Z,9.40
2022-11-26T11:28:54.838Z,9.30
2022-11-26T11:31:24.440Z,9.20
2022-11-26T11:33:52.621Z,9.20
2022-11-26T11:36:26.206Z,8.90
2022-11-26T11:38:55.961Z,8.80
2022-11-26T11:41:31.990Z,8.90
2022-11-26T11:44:16.777Z,8.90
2022-11-26T11:46:46.451Z,9.00
2022-11-26T11:49:46.714Z,9.10
2022-11-26T11:52:28.117Z,9.00
2022-11-26T11:55:13.520Z,9.10
2022-11-26T11:57:49.328Z,9.10
2022-11-26T12:00:19.834Z,9.10
2022-11-26T12:03:16.072Z,9.10
2022-11-26T12:06:01.414Z,9.20
2022-11-26T12:08:56.479Z,9.00
2022-11-26T12:11:29.421Z,8.90
2022-11-26T12:14:00.205Z,9.00
2022-11-26T12:16:33.161Z,9.00
2022-11-26T12:19:02.423Z,9.00
2022-11-26T12:21:48.092Z,9.00
2022-11-26T12:24:29.007Z,9.00
2022-11-26T12:27:00.942Z,9.00
2022-11-26T12:30:12.062Z,9.10
2022-11-26T12:32:52.982Z,9.10
2022-11-26T12:35:28.816Z,9.10
2022-11-26T12:38:02.553Z,9.10
2022-11-26T12:40:35.767Z,8.90
2022-11-26T12:43:19.120Z,8.90
2022-11-26T12:45:58.479Z,8.90
2022-11-26T12:48:33.458Z,8.80
2022-11-26T12:51:24.664Z,8.80
2022-11-26T12:54:07.105Z,8.80
2022-11-26T12:56:48.856Z,8.80
2022-11-26T12:59:37.539Z,8.70
2022-11-26T13:02:37.988Z,8.60
2022-11-26T13:05:05.873Z,8.60
2022-11-26T13:07:44.636Z,8.60
2022-11-26T13:10:51.676Z,8.50
2022-11-26T13:13:45.041Z,8.60
2022-11-26T13:16:45.541Z,8.50
2022-11-26T13:19:34.524Z,8.50
2022-11-26T13:22:22.866Z,8.40
2022-11-26T13:25:13.143Z,8.40
2022-11-26T13:27:57.384Z,8.40
2022-11-26T13:30:34.292Z,8.40
2022-11-26T13:33:23.448Z,8.50
2022-11-26T13:36:05.564Z,8.40
2022-11-26T13:38:56.678Z,8.40
2022-11-26T13:42:01.068Z,8.50
2022-11-26T13:44:51.359Z,8.50
2022-11-26T13:47:22.615Z,8.50
2022-11-26T13:50:19.633Z,8.40
2022-11-26T13:53:00.997Z,8.40
2022-11-26T13:55:38.166Z,8.40
2022-11-26T13:58:13.077Z,8.40
2022-11-26T14:00:40.079Z,8.40
2022-11-26T14:03:09.508Z,8.40
2022-11-26T14:06:08.157Z,8.40
2022-11-26T14:08:38.287Z,8.50
2022-11-26T14:11:05.876Z,8.50
2022-11-26T14:13:32.971Z,8.50
2022-11-26T14:16:10.023Z,8.50
2022-11-26T14:18:49.047Z,8.70
2022-11-26T14:21:17.909Z,8.80
2022-11-26T14:23:56.243Z,8.80
2022-11-26T14:26:28.412Z,8.80
2022-11-26T14:29:04.979Z,8.70
2022-11-26T14:31:33.429Z,8.60
2022-11-26T14:34:11.807Z,8.60
2022-11-26T14:36:53.527Z,8.60
2022-11-26T14:39:20.480Z,8.50
2022-11-26T14:41:47.420Z,8.40
2022-11-26T14:44:16.456Z,8.30
2022-11-26T14:46:46.266Z,8.40
2022-11-26T14:49:46.085Z,8.50
2022-11-26T14:52:24.661Z,8.30
2022-11-26T14:54:54.434Z,8.30
2022-11-26T14:57:35.788Z,8.30
2022-11-26T15:00:19.457Z,8.30
2022-11-26T15:02:46.625Z,8.30
2022-11-26T15:05:30.111Z,8.30
2022-11-26T15:08:06.322Z,8.30
2022-11-26T15:10:37.854Z,8.20
2022-11-26T15:13:16.743Z,8.20
2022-11-26T15:15:55.078Z,8.40
2022-11-26T15:18:27.644Z,8.40
2022-11-26T15:20:55.673Z,8.30
2022-11-26T15:23:30.832Z,8.30
2022-11-26T15:25:59.259Z,8.20
2022-11-26T15:28:26.505Z,8.10
2022-11-26T15:31:02.599Z,8.00
2022-11-26T15:33:32.538Z,8.10
2022-11-26T15:36:00.555Z,8.10
2022-11-26T15:38:32.705Z,8.10
2022-11-26T15:41:04.787Z,8.00
2022-11-26T15:43:33.969Z,8.00
2022-11-26T15:46:17.344Z,8.10
2022-11-26T15:48:53.788Z,8.00
2022-11-26T15:51:37.103Z,7.90
2022-11-26T15:54:38.331Z,8.10
2022-11-26T15:57:27.255Z,8.10
2022-11-26T16:00:08.826Z,8.10
2022-11-26T16:02:39.149Z,8.10
2022-11-26T16:05:29.559Z,8.20
2022-11-26T16:08:22.627Z,8.20
2022-11-26T16:11:04.563Z,8.00
2022-11-26T16:13:33.765Z,8.00
2022-11-26T16:16:15.436Z,7.90
2022-11-26T16:19:04.872Z,7.90
2022-11-26T16:21:34.042Z,8.00
2022-11-26T16:24:05.813Z,8.00
2022-11-26T16:26:54.127Z,7.90
2022-11-26T16:29:21.839Z,7.90
2022-11-26T16:31:49.393Z,7.90
2022-11-26T16:34:16.880Z,7.90
2022-11-26T16:36:44.188Z,7.90
2022-11-26T16:39:16.130Z,7.90
2022-11-26T16:41:43.463Z,7.90
2022-11-26T16:44:10.428Z,7.80
2022-11-26T16:46:38.420Z,7.90
2022-11-26T16:49:05.641Z,7.90
2022-11-26T16:51:32.878Z,7.90
2022-11-26T16:54:00.101Z,7.90
2022-11-26T16:56:37.516Z,7.90
2022-11-26T16:59:17.186Z,7.90
2022-11-26T17:01:44.190Z,8.00
2022-11-26T17:04:13.555Z,8.00
2022-11-26T17:06:41.679Z,7.90
2022-11-26T17:09:20.468Z,7.90
2022-11-26T17:11:47.579Z,7.90
2022-11-26T17:14:15.222Z,7.90
2022-11-26T17:16:42.247Z,7.90
2022-11-26T17:19:15.264Z,7.90
2022-11-26T17:21:42.251Z,7.90
2022-11-26T17:24:09.237Z,7.90
2022-11-26T17:26:36.475Z,7.90
2022-11-26T17:29:03.543Z,7.80
2022-11-26T17:31:31.224Z,7.80
2022-11-26T17:33:58.700Z,7.80
2022-11-26T17:36:25.863Z,7.80
2022-11-26T17:38:53.416Z,7.80
2022-11-26T17:41:20.369Z,7.80
2022-11-26T17:43:47.419Z,7.80
2022-11-26T17:46:20.707Z,7.80
2022-11-26T17:48:49.085Z,7.80
2022-11-26T17:51:16.424Z,7.80
2022-11-26T17:53:43.914Z,7.80
2022-11-26T17:56:23.419Z,7.80
2022-11-26T17:58:50.921Z,7.90
2022-11-26T18:01:18.471Z,7.80
2022-11-26T18:03:46.435Z,7.80
2022-11-26T18:06:18.321Z,7.90
2022-11-26T18:08:45.881Z,7.80
2022-11-26T18:11:14.879Z,7.80
2022-11-26T18:13:41.892Z,7.80
2022-11-26T18:16:08.847Z,7.80
2022-11-26T18:18:35.754Z,7.80
2022-11-26T18:21:02.773Z,7.80
2022-11-26T18:23:29.743Z,7.80
2022-11-26T18:25:56.694Z,7.80
2022-11-26T18:28:23.629Z,7.90
2022-11-26T18:30:50.633Z,7.90
2022-11-26T18:33:17.679Z,8.00
2022-11-26T18:35:44.601Z,7.90
2022-11-26T18:38:11.640Z,7.80
2022-11-26T18:40:38.947Z,7.80
2022-11-26T18:43:05.956Z,7.70
2022-11-26T18:45:33.027Z,7.70
2022-11-26T18:48:00.486Z,7.60
2022-11-26T18:50:27.606Z,7.70
2022-11-26T18:52:58.407Z,7.70
2022-11-26T18:55:25.516Z,7.80
2022-11-26T18:57:52.521Z,7.80
2022-11-26T19:00:19.745Z,7.70
2022-11-26T19:02:46.841Z,7.70
2022-11-26T19:05:14.205Z,7.80
2022-11-26T19:07:41.158Z,7.80
2022-11-26T19:10:08.800Z,7.70
2022-11-26T19:12:35.706Z,7.80
2022-11-26T19:15:02.800Z,7.70
2022-11-26T19:17:29.737Z,7.70
2022-11-26T19:19:56.767Z,7.70
2022-11-26T19:22:23.711Z,7.70
2022-11-26T19:24:50.670Z,7.70
2022-11-26T19:27:17.662Z,7.80
2022-11-26T19:29:45.008Z,7.90
2022-11-26T19:32:11.935Z,8.10
2022-11-26T19:34:39.435Z,8.30
2022-11-26T19:37:06.639Z,8.50
2022-11-26T19:39:33.579Z,8.30
2022-11-26T19:42:00.631Z,8.30
2022-11-26T19:44:27.574Z,8.20
2022-11-26T19:46:54.557Z,8.10
2022-11-26T19:49:21.627Z,7.90
2022-11-26T19:51:48.544Z,7.90
2022-11-26T19:54:15.530Z,7.90
2022-11-26T19:56:43.262Z,7.90
2022-11-26T19:59:10.300Z,7.90
2022-11-26T20:01:37.397Z,7.90
2022-11-26T20:04:07.604Z,7.90
2022-11-26T20:06:35.439Z,7.90
2022-11-26T20:09:04.239Z,7.90
2022-11-26T20:11:31.431Z,7.90
2022-11-26T20:13:58.857Z,7.90
2022-11-26T20:16:29.517Z,7.90
2022-11-26T20:18:57.923Z,7.90
2022-11-26T20:21:33.661Z,7.90
2022-11-26T20:24:05.088Z,7.80
2022-11-26T20:26:37.762Z,7.80
2022-11-26T20:29:08.377Z,7.80
2022-11-26T20:31:38.784Z,7.80
2022-11-26T20:34:05.725Z,7.70
2022-11-26T20:36:32.708Z,7.70
2022-11-26T20:39:02.196Z,7.70
2022-11-26T20:41:29.789Z,7.80
2022-11-26T20:43:59.491Z,7.80
2022-11-26T20:46:28.501Z,7.80
2022-11-26T20:48:56.478Z,7.80
2022-11-26T20:51:24.434Z,7.70
2022-11-26T20:53:52.371Z,7.70
2022-11-26T20:56:22.259Z,7.70
2022-11-26T20:58:50.365Z,7.80
2022-11-26T21:01:19.664Z,7.80
2022-11-26T21:03:46.728Z,7.80
2022-11-26T21:06:14.871Z,7.80
2022-11-26T21:08:42.523Z,7.80
2022-11-26T21:11:10.200Z,7.80
2022-11-26T21:13:38.879Z,7.80
2022-11-26T21:16:09.900Z,7.80
2022-11-26T21:18:36.795Z,7.90
2022-11-26T21:21:11.415Z,7.80
2022-11-26T21:23:39.879Z,7.80
2022-11-26T21:26:09.121Z,7.80
2022-11-26T21:28:36.685Z,7.70
2022-11-26T21:31:17.237Z,7.70
2022-11-26T21:33:46.092Z,7.70
2022-11-26T21:36:15.883Z,7.70
2022-11-26T21:38:43.147Z,7.70
2022-11-26T21:41:14.172Z,7.70
2022-11-26T21:43:41.950Z,7.70
2022-11-26T21:46:13.969Z,7.70
2022-11-26T21:48:41.062Z,7.70
2022-11-26T21:51:10.115Z,7.70
2022-11-26T21:53:37.055Z,7.70
2022-11-26T21:56:17.424Z,7.70
2022-11-26T21:58:44.846Z,7.70
2022-11-26T22:01:14.668Z,7.60
2022-11-26T22:03:43.742Z,7.60
2022-11-26T22:06:11.219Z,7.70
2022-11-26T22:08:38.807Z,7.70
2022-11-26T22:11:17.822Z,7.70
2022-11-26T22:13:45.123Z,7.70
2022-11-26T22:16:14.279Z,7.70
2022-11-26T22:18:42.696Z,7.70
2022-11-26T22:21:16.390Z,7.70
2022-11-26T22:23:43.806Z,7.70
2022-11-26T22:26:11.063Z,7.80
2022-11-26T22:28:41.382Z,7.80
2022-11-26T22:31:22.161Z,7.70
2022-11-26T22:33:53.399Z,7.70
2022-11-26T22:36:20.439Z,7.70
2022-11-26T22:38:47.770Z,7.80
2022-11-26T22:41:15.594Z,7.80
2022-11-26T22:43:42.999Z,7.80
2022-11-26T22:46:13.338Z,7.80
2022-11-26T22:48:40.914Z,7.80
2022-11-26T22:51:08.222Z,7.90
2022-11-26T22:53:35.735Z,7.90
2022-11-26T22:56:05.759Z,7.90
2022-11-26T22:58:34.212Z,7.90
2022-11-26T23:01:04.373Z,7.90
2022-11-26T23:03:33.828Z,7.90
2022-11-26T23:06:11.683Z,7.90
2022-11-26T23:08:39.611Z,7.90
2022-11-26T23:11:11.369Z,7.80
2022-11-26T23:13:41.708Z,7.70
2022-11-26T23:16:09.519Z,7.60
2022-11-26T23:18:37.782Z,7.60
2022-11-26T23:21:18.266Z,7.50
2022-11-26T23:23:45.735Z,7.60
2022-11-26T23:26:15.723Z,7.60
2022-11-26T23:28:42.835Z,7.70
2022-11-26T23:31:21.573Z,7.60
2022-11-26T23:33:49.275Z,7.70
2022-11-26T23:36:16.708Z,7.70
2022-11-26T23:38:43.889Z,7.70
2022-11-26T23:41:10.948Z,7.80
2022-11-26T23:43:38.868Z,7.80
2022-11-26T23:46:14.192Z,7.70
2022-11-26T23:48:41.574Z,7.70
2022-11-26T23:51:11.106Z,7.60
2022-11-26T23:53:40.248Z,7.70
2022-11-26T23:56:11.463Z,7.70
2022-11-26T23:58:38.805Z,7.70
